createdAt,value
2018-09-21T00:01:07.726Z,63.43
2018-09-21T00:03:37.962Z,66.25
2018-09-21T00:06:09.192Z,68.09
2018-09-21T00:08:40.144Z,68.14
2018-09-21T00:11:12.408Z,65.74
2018-09-21T00:13:43.196Z,62.76
2018-09-21T00:16:13.769Z,62.16
2018-09-21T00:18:44.011Z,62.47
2018-09-21T00:21:15.044Z,62.52
2018-09-21T00:23:45.681Z,61.71
2018-09-21T00:26:15.955Z,60.96
2018-09-21T00:28:46.734Z,60.26
2018-09-21T00:31:17.828Z,60.75
2018-09-21T00:33:48.340Z,61.83
2018-09-21T00:36:18.895Z,61.07
2018-09-21T00:38:50.086Z,64.75
2018-09-21T00:41:20.872Z,65.64
2018-09-21T00:43:51.369Z,67.31
2018-09-21T00:46:22.695Z,66.77
2018-09-21T00:48:53.389Z,65.31
2018-09-21T00:51:23.943Z,62.83
2018-09-21T00:53:54.468Z,62.08
2018-09-21T00:56:24.972Z,60.76
2018-09-21T00:58:55.874Z,60.09
2018-09-21T01:01:26.672Z,59.85
2018-09-21T01:03:58.183Z,59.67
2018-09-21T01:06:28.964Z,60.24
2018-09-21T01:08:59.735Z,60.54
2018-09-21T01:11:30.289Z,63.22
2018-09-21T01:14:01.460Z,67.04
2018-09-21T01:16:32.957Z,67.80
2018-09-21T01:19:04.325Z,67.39
2018-09-21T01:21:34.881Z,66.81
2018-09-21T01:24:07.241Z,64.92
2018-09-21T01:26:37.799Z,63.90
2018-09-21T01:29:08.094Z,63.11
2018-09-21T01:31:38.948Z,62.98
2018-09-21T01:34:09.546Z,62.84
2018-09-21T01:36:39.954Z,63.50
2018-09-21T01:39:11.207Z,65.20
2018-09-21T01:41:41.892Z,64.86
2018-09-21T01:44:12.585Z,65.53
2018-09-21T01:46:42.855Z,64.84
2018-09-21T01:49:13.381Z,64.03
2018-09-21T01:51:43.943Z,65.49
2018-09-21T01:54:14.211Z,64.75
2018-09-21T01:56:44.706Z,66.35
2018-09-21T01:59:15.430Z,67.06
2018-09-21T02:01:45.836Z,68.13
2018-09-21T02:04:16.189Z,68.97
2018-09-21T02:06:49.192Z,68.56
2018-09-21T02:09:19.717Z,67.66
2018-09-21T02:11:50.735Z,69.70
2018-09-21T02:14:21.534Z,72.19
2018-09-21T02:16:52.320Z,72.68
2018-09-21T02:19:22.924Z,70.52
2018-09-21T02:21:57.496Z,69.76
2018-09-21T02:24:28.127Z,70.58
2018-09-21T02:26:58.664Z,71.71
2018-09-21T02:29:28.898Z,73.09
2018-09-21T02:31:59.321Z,73.24
2018-09-21T02:34:29.909Z,72.43
2018-09-21T02:37:00.155Z,72.20
2018-09-21T02:39:30.388Z,70.69
2018-09-21T02:42:00.649Z,68.10
2018-09-21T02:44:30.968Z,66.26
2018-09-21T02:47:01.642Z,66.31
2018-09-21T02:49:32.028Z,65.89
2018-09-21T02:52:02.736Z,65.75
2018-09-21T02:54:33.252Z,68.51
2018-09-21T02:57:03.973Z,69.82
2018-09-21T02:59:34.816Z,70.03
2018-09-21T03:02:05.080Z,70.21
2018-09-21T03:04:39.528Z,68.64
2018-09-21T03:07:10.072Z,69.10
2018-09-21T03:09:40.729Z,67.69
2018-09-21T03:12:11.279Z,67.46
2018-09-21T03:14:41.957Z,67.00
2018-09-21T03:17:13.093Z,66.91
2018-09-21T03:19:43.875Z,66.31
2018-09-21T03:22:15.532Z,65.13
2018-09-21T03:24:46.031Z,64.76
2018-09-21T03:27:17.104Z,64.04
2018-09-21T03:29:48.201Z,65.10
2018-09-21T03:32:18.714Z,67.04
2018-09-21T03:34:49.292Z,68.52
2018-09-21T03:37:20.085Z,69.56
2018-09-21T03:39:50.574Z,70.02
2018-09-21T03:42:20.809Z,71.12
2018-09-21T03:44:52.291Z,70.57
2018-09-21T03:47:22.840Z,70.75
2018-09-21T03:49:53.437Z,73.93
2018-09-21T03:52:24.377Z,73.52
2018-09-21T03:54:54.968Z,75.90
2018-09-21T03:57:25.549Z,75.62
2018-09-21T03:59:57.003Z,74.79
2018-09-21T04:02:27.290Z,73.77
2018-09-21T04:04:57.609Z,73.65
2018-09-21T04:07:29.446Z,74.41
2018-09-21T04:09:59.741Z,72.99
2018-09-21T04:12:36.007Z,71.73
2018-09-21T04:15:16.057Z,70.81
2018-09-21T04:17:46.886Z,71.11
2018-09-21T04:20:17.401Z,72.58
2018-09-21T04:22:59.129Z,71.74
2018-09-21T04:25:32.990Z,71.16
2018-09-21T04:28:04.505Z,71.90
2018-09-21T04:30:35.299Z,73.13
2018-09-21T04:33:05.856Z,71.96
2018-09-21T04:35:36.372Z,70.12
2018-09-21T04:38:07.387Z,70.19
2018-09-21T04:40:37.608Z,72.20
2018-09-21T04:43:08.267Z,73.16
2018-09-21T04:45:38.797Z,72.07
2018-09-21T04:48:10.383Z,71.34
2018-09-21T04:50:41.751Z,70.50
2018-09-21T04:53:11.987Z,72.35
2018-09-21T04:55:42.320Z,72.07
2018-09-21T04:58:12.864Z,71.84
2018-09-21T05:00:43.538Z,71.51
2018-09-21T05:03:14.078Z,71.32
2018-09-21T05:05:46.608Z,70.96
2018-09-21T05:08:17.725Z,70.30
2018-09-21T05:10:48.225Z,70.33
2018-09-21T05:13:21.776Z,70.19
2018-09-21T05:15:52.908Z,69.93
2018-09-21T05:18:23.402Z,70.57
2018-09-21T05:20:54.126Z,70.64
2018-09-21T05:23:24.727Z,71.13
2018-09-21T05:25:55.328Z,70.81
2018-09-21T05:28:25.659Z,71.29
2018-09-21T05:30:56.395Z,71.57
2018-09-21T05:33:26.816Z,71.55
2018-09-21T05:35:57.374Z,72.11
2018-09-21T05:38:28.183Z,71.18
2018-09-21T05:40:58.713Z,71.22
2018-09-21T05:43:29.919Z,72.06
2018-09-21T05:46:00.204Z,72.33
2018-09-21T05:48:30.997Z,72.07
2018-09-21T05:51:03.904Z,72.28
2018-09-21T05:53:35.041Z,72.21
2018-09-21T05:56:05.689Z,71.98
2018-09-21T05:58:36.382Z,71.35
2018-09-21T06:01:07.292Z,71.37
2018-09-21T06:03:37.885Z,70.90
2018-09-21T06:06:08.157Z,71.44
2018-09-21T06:08:38.712Z,72.35
2018-09-21T06:11:11.456Z,71.42
2018-09-21T06:13:42.483Z,71.16
2018-09-21T06:16:13.398Z,71.17
2018-09-21T06:18:44.089Z,71.76
2018-09-21T06:21:15.005Z,70.44
2018-09-21T06:23:45.658Z,69.87
2018-09-21T06:26:16.909Z,70.14
2018-09-21T06:28:47.696Z,71.30
2018-09-21T06:31:18.288Z,70.53
2018-09-21T06:33:48.597Z,69.88
2018-09-21T06:36:19.089Z,68.83
2018-09-21T06:38:50.200Z,68.65
2018-09-21T06:41:20.837Z,67.16
2018-09-21T06:43:51.385Z,67.13
2018-09-21T06:46:21.674Z,69.42
2018-09-21T06:48:52.383Z,69.04
2018-09-21T06:51:23.132Z,70.77
2018-09-21T06:53:54.006Z,72.86
2018-09-21T06:56:24.548Z,73.38
2018-09-21T06:58:56.504Z,71.38
2018-09-21T07:01:27.170Z,70.34
2018-09-21T07:03:58.280Z,69.60
2018-09-21T07:06:28.810Z,72.62
2018-09-21T07:08:59.302Z,72.28
2018-09-21T07:11:29.833Z,69.11
2018-09-21T07:14:00.581Z,67.53
2018-09-21T07:16:30.792Z,65.69
2018-09-21T07:19:01.321Z,65.51
2018-09-21T07:21:31.636Z,64.73
2018-09-21T07:24:02.372Z,64.36
2018-09-21T07:26:32.677Z,64.51
2018-09-21T07:29:03.055Z,65.77
2018-09-21T07:31:33.876Z,64.43
2018-09-21T07:34:04.568Z,61.84
2018-09-21T07:36:35.455Z,61.38
2018-09-21T07:39:07.486Z,61.32
2018-09-21T07:41:37.732Z,62.74
2018-09-21T07:44:08.272Z,63.18
2018-09-21T07:46:38.993Z,62.26
2018-09-21T07:49:10.110Z,61.66
2018-09-21T07:51:41.310Z,61.26
2018-09-21T07:54:11.944Z,64.68
2018-09-21T07:56:42.984Z,64.00
2018-09-21T07:59:13.544Z,66.80
2018-09-21T08:01:44.880Z,66.29
2018-09-21T08:04:15.197Z,67.18
2018-09-21T08:06:45.414Z,67.87
2018-09-21T08:09:16.033Z,65.83
2018-09-21T08:11:46.857Z,62.10
2018-09-21T08:14:17.696Z,62.85
2018-09-21T08:16:48.374Z,61.17
2018-09-21T08:19:19.853Z,59.35
2018-09-21T08:21:50.842Z,60.22
2018-09-21T08:24:21.473Z,58.78
2018-09-21T08:26:51.896Z,58.11
2018-09-21T08:29:23.821Z,58.90
2018-09-21T08:31:55.563Z,57.68
2018-09-21T08:34:26.553Z,56.28
2018-09-21T08:36:57.411Z,60.76
2018-09-21T08:39:28.125Z,58.55
2018-09-21T08:41:58.668Z,58.06
2018-09-21T08:44:29.308Z,58.96
2018-09-21T08:46:59.768Z,59.25
2018-09-21T08:49:30.304Z,56.87
2018-09-21T08:52:01.140Z,55.29
2018-09-21T08:54:31.846Z,57.01
2018-09-21T08:57:02.073Z,54.73
2018-09-21T08:59:32.309Z,53.97
2018-09-21T09:02:02.555Z,53.45
2018-09-21T09:04:32.838Z,52.10
2018-09-21T09:07:03.077Z,52.01
2018-09-21T09:09:34.323Z,50.44
2018-09-21T09:12:05.268Z,50.45
2018-09-21T09:14:35.757Z,49.84
2018-09-21T09:17:06.481Z,49.19
2018-09-21T09:19:36.985Z,48.51
2018-09-21T09:22:08.051Z,43.38
2018-09-21T09:24:38.428Z,34.13
2018-09-21T09:27:09.972Z,29.09
2018-09-21T09:29:40.210Z,30.02
2018-09-21T09:32:10.715Z,24.40
2018-09-21T09:34:41.391Z,34.60
2018-09-21T09:37:12.252Z,26.51
2018-09-21T09:39:42.803Z,24.94
2018-09-21T09:42:13.308Z,23.84
2018-09-21T09:44:44.417Z,23.81
2018-09-21T09:47:14.940Z,22.12
2018-09-21T09:49:45.475Z,22.84
2018-09-21T09:52:16.339Z,23.44
2018-09-21T09:54:46.892Z,22.41
2018-09-21T09:57:17.706Z,22.54
2018-09-21T09:59:48.217Z,24.12
2018-09-21T10:02:18.749Z,26.52
2018-09-21T10:04:48.972Z,27.06
2018-09-21T10:07:19.496Z,22.10
2018-09-21T10:09:50.031Z,21.33
2018-09-21T10:12:20.580Z,21.08
2018-09-21T10:14:51.112Z,21.47
2018-09-21T10:17:21.613Z,26.53
2018-09-21T10:19:53.705Z,25.23
2018-09-21T10:22:24.532Z,20.46
2018-09-21T10:24:55.053Z,19.21
2018-09-21T10:27:25.623Z,21.09
2018-09-21T10:29:56.740Z,25.02
2018-09-21T10:32:27.265Z,27.35
2018-09-21T10:34:58.358Z,28.56
2018-09-21T10:37:28.937Z,29.60
2018-09-21T10:39:59.850Z,27.34
2018-09-21T10:42:30.374Z,22.92
2018-09-21T10:45:00.861Z,24.14
2018-09-21T10:47:32.483Z,31.23
2018-09-21T10:50:03.082Z,32.69
2018-09-21T10:52:34.331Z,34.17
2018-09-21T10:55:10.556Z,35.20
2018-09-21T10:57:41.287Z,34.86
2018-09-21T11:00:15.136Z,35.43
2018-09-21T11:02:45.956Z,35.77
2018-09-21T11:05:16.462Z,34.83
2018-09-21T11:07:47.006Z,34.92
2018-09-21T11:10:19.096Z,34.69
2018-09-21T11:12:49.603Z,35.13
2018-09-21T11:15:20.206Z,35.76
2018-09-21T11:17:50.688Z,33.71
2018-09-21T11:20:21.003Z,33.43
2018-09-21T11:22:51.224Z,33.84
2018-09-21T11:25:21.738Z,33.78
2018-09-21T11:27:52.266Z,39.83
2018-09-21T11:30:23.089Z,36.54
2018-09-21T11:32:53.858Z,35.08
2018-09-21T11:35:24.632Z,37.09
2018-09-21T11:37:55.144Z,37.62
2018-09-21T11:40:25.366Z,34.57
2018-09-21T11:42:55.681Z,34.19
2018-09-21T11:45:26.045Z,33.02
2018-09-21T11:47:56.643Z,33.16
2018-09-21T11:50:27.128Z,32.73
2018-09-21T11:52:57.407Z,32.72
2018-09-21T11:55:28.208Z,33.61
2018-09-21T11:57:58.823Z,33.28
2018-09-21T12:00:30.017Z,32.73
2018-09-21T12:03:00.576Z,32.97
2018-09-21T12:05:30.847Z,32.13
2018-09-21T12:08:03.465Z,34.38
2018-09-21T12:10:34.081Z,34.14
2018-09-21T12:13:05.434Z,31.94
2018-09-21T12:15:36.677Z,33.39
2018-09-21T12:18:07.215Z,32.67
2018-09-21T12:20:38.004Z,31.76
2018-09-21T12:23:09.925Z,30.62
2018-09-21T12:25:40.439Z,33.64
2018-09-21T12:28:10.956Z,32.98
2018-09-21T12:30:41.659Z,32.74
2018-09-21T12:33:12.836Z,31.65
2018-09-21T12:35:43.068Z,32.80
2018-09-21T12:38:13.560Z,32.40
2018-09-21T12:40:44.204Z,31.37
2018-09-21T12:43:15.914Z,30.72
2018-09-21T12:45:46.544Z,30.79
2018-09-21T12:48:16.772Z,32.73
2018-09-21T12:50:47.362Z,32.67
2018-09-21T12:53:17.995Z,32.20
2018-09-21T12:55:48.540Z,32.97
2018-09-21T12:58:18.955Z,33.56
2018-09-21T13:00:52.668Z,34.14
2018-09-21T13:03:23.979Z,33.65
2018-09-21T13:05:57.984Z,32.66
2018-09-21T13:08:28.730Z,31.47
2018-09-21T13:10:59.392Z,31.17
2018-09-21T13:13:29.928Z,34.90
2018-09-21T13:16:01.229Z,32.78
2018-09-21T13:18:31.758Z,33.98
2018-09-21T13:21:02.018Z,33.25
2018-09-21T13:23:32.237Z,32.17
2018-09-21T13:26:02.825Z,33.01
2018-09-21T13:28:34.219Z,31.97
2018-09-21T13:31:05.120Z,32.62
2018-09-21T13:33:35.665Z,31.18
2018-09-21T13:36:06.679Z,30.96
2018-09-21T13:38:37.195Z,32.29
2018-09-21T13:41:07.727Z,33.09
2018-09-21T13:43:38.284Z,31.82
2018-09-21T13:46:09.746Z,32.36
2018-09-21T13:48:40.320Z,31.81
2018-09-21T13:51:11.034Z,32.39
2018-09-21T13:53:41.525Z,33.44
2018-09-21T13:56:12.159Z,33.17
2018-09-21T13:58:42.689Z,32.88
2018-09-21T14:01:12.899Z,35.43
2018-09-21T14:03:43.409Z,34.66
2018-09-21T14:06:13.612Z,35.75
2018-09-21T14:08:44.434Z,35.55
2018-09-21T14:11:15.331Z,35.16
2018-09-21T14:13:45.546Z,34.81
2018-09-21T14:16:16.106Z,34.16
2018-09-21T14:18:46.308Z,34.49
2018-09-21T14:21:16.556Z,36.20
2018-09-21T14:23:47.326Z,37.67
2018-09-21T14:26:18.140Z,37.38
2018-09-21T14:28:48.536Z,36.12
2018-09-21T14:31:19.031Z,35.09
2018-09-21T14:33:50.623Z,35.30
2018-09-21T14:36:21.136Z,34.45
2018-09-21T14:38:51.771Z,35.29
2018-09-21T14:41:22.290Z,35.65
2018-09-21T14:43:53.409Z,36.54
2018-09-21T14:46:24.232Z,36.92
2018-09-21T14:48:54.776Z,37.64
2018-09-21T14:51:25.396Z,37.23
2018-09-21T14:53:55.884Z,36.52
2018-09-21T14:56:26.500Z,35.59
2018-09-21T14:58:57.285Z,36.19
2018-09-21T15:01:27.500Z,36.01
2018-09-21T15:03:58.312Z,37.02
2018-09-21T15:06:28.912Z,36.53
2018-09-21T15:08:59.660Z,36.91
2018-09-21T15:11:30.331Z,37.88
2018-09-21T15:14:00.885Z,38.22
2018-09-21T15:16:31.588Z,38.74
2018-09-21T15:19:02.209Z,39.42
2018-09-21T15:21:32.488Z,40.04
2018-09-21T15:24:03.521Z,39.33
2018-09-21T15:26:34.191Z,39.06
2018-09-21T15:29:04.801Z,39.68
2018-09-21T15:31:35.044Z,40.43
2018-09-21T15:34:05.768Z,40.65
2018-09-21T15:36:36.402Z,40.63
2018-09-21T15:39:09.104Z,41.21
2018-09-21T15:41:39.833Z,40.91
2018-09-21T15:44:10.688Z,41.89
2018-09-21T15:46:41.294Z,41.43
2018-09-21T15:49:11.864Z,41.88
2018-09-21T15:51:42.426Z,41.98
2018-09-21T15:54:13.873Z,41.50
2018-09-21T15:56:44.651Z,41.92
2018-09-21T15:59:15.471Z,41.78
2018-09-21T16:01:45.696Z,42.20
2018-09-21T16:04:16.257Z,42.43
2018-09-21T16:06:46.756Z,42.62
2018-09-21T16:09:17.392Z,42.77
2018-09-21T16:11:47.672Z,43.14
2018-09-21T16:14:17.957Z,42.88
2018-09-21T16:16:48.619Z,42.08
2018-09-21T16:19:18.865Z,42.27
2018-09-21T16:21:49.580Z,43.00
2018-09-21T16:24:20.083Z,43.78
2018-09-21T16:26:50.559Z,44.83
2018-09-21T16:29:21.067Z,44.63
2018-09-21T16:31:51.776Z,45.17
2018-09-21T16:34:22.295Z,45.15
2018-09-21T16:36:52.817Z,45.56
2018-09-21T16:39:23.513Z,45.91
2018-09-21T16:41:54.347Z,46.70
2018-09-21T16:44:25.381Z,46.35
2018-09-21T16:46:56.034Z,46.56
2018-09-21T16:49:26.681Z,47.61
2018-09-21T16:51:57.977Z,48.01
2018-09-21T16:54:28.757Z,47.36
2018-09-21T16:56:59.570Z,47.99
2018-09-21T16:59:30.366Z,48.07
2018-09-21T17:02:00.854Z,48.86
2018-09-21T17:04:31.502Z,48.87
2018-09-21T17:07:02.249Z,49.42
2018-09-21T17:09:32.922Z,49.34
2018-09-21T17:12:03.463Z,49.62
2018-09-21T17:14:34.089Z,49.59
2018-09-21T17:17:04.625Z,50.53
2018-09-21T17:19:35.140Z,50.54
2018-09-21T17:22:05.833Z,50.19
2018-09-21T17:24:36.662Z,51.14
2018-09-21T17:27:07.537Z,51.59
2018-09-21T17:29:38.228Z,50.92
2018-09-21T17:32:09.464Z,51.63
2018-09-21T17:34:40.563Z,51.58
2018-09-21T17:37:11.860Z,52.30
2018-09-21T17:39:42.155Z,52.02
2018-09-21T17:42:12.386Z,52.47
2018-09-21T17:44:43.129Z,52.33
2018-09-21T17:47:13.365Z,52.62
2018-09-21T17:49:43.913Z,52.78
2018-09-21T17:52:14.564Z,52.08
2018-09-21T17:54:45.380Z,51.86
2018-09-21T17:57:15.957Z,52.81
2018-09-21T17:59:46.453Z,52.86
2018-09-21T18:02:16.994Z,52.66
2018-09-21T18:04:47.268Z,53.21
2018-09-21T18:07:20.807Z,52.37
2018-09-21T18:09:52.876Z,53.02
2018-09-21T18:12:23.438Z,52.16
2018-09-21T18:14:53.967Z,52.67
2018-09-21T18:17:24.813Z,53.15
2018-09-21T18:19:55.692Z,54.07
2018-09-21T18:22:26.268Z,54.16
2018-09-21T18:24:56.916Z,54.64
2018-09-21T18:27:27.483Z,55.08
2018-09-21T18:29:58.024Z,55.55
2018-09-21T18:32:28.528Z,54.39
2018-09-21T18:34:58.778Z,55.01
2018-09-21T18:37:29.405Z,55.96
2018-09-21T18:40:00.018Z,56.34
2018-09-21T18:42:30.396Z,57.07
2018-09-21T18:45:01.078Z,57.33
2018-09-21T18:47:31.345Z,56.69
2018-09-21T18:50:01.622Z,56.55
2018-09-21T18:52:32.816Z,57.37
2018-09-21T18:55:06.619Z,57.25
2018-09-21T18:57:37.179Z,57.27
2018-09-21T19:00:08.235Z,58.49
2018-09-21T19:02:38.908Z,58.59
2018-09-21T19:05:14.216Z,59.50
2018-09-21T19:07:44.880Z,59.86
2018-09-21T19:10:15.315Z,59.94
2018-09-21T19:12:45.941Z,59.54
2018-09-21T19:15:19.979Z,58.77
2018-09-21T19:17:51.183Z,58.78
2018-09-21T19:20:21.768Z,57.40
2018-09-21T19:22:51.994Z,55.00
2018-09-21T19:25:22.686Z,56.23
2018-09-21T19:27:53.116Z,57.57
2018-09-21T19:30:24.124Z,60.63
2018-09-21T19:32:54.752Z,59.32
2018-09-21T19:35:25.490Z,60.37
2018-09-21T19:37:56.160Z,61.58
2018-09-21T19:40:26.999Z,61.28
2018-09-21T19:42:57.821Z,61.68
2018-09-21T19:45:28.619Z,59.78
2018-09-21T19:47:59.045Z,61.86
2018-09-21T19:50:29.698Z,62.33
2018-09-21T19:53:00.264Z,62.92
2018-09-21T19:55:30.969Z,63.33
2018-09-21T19:58:01.304Z,62.01
2018-09-21T20:00:31.568Z,62.34
2018-09-21T20:03:01.792Z,59.53
2018-09-21T20:05:32.079Z,57.86
2018-09-21T20:08:02.636Z,57.26
2018-09-21T20:10:35.630Z,56.75
2018-09-21T20:13:08.060Z,56.17
2018-09-21T20:15:38.722Z,55.57
2018-09-21T20:18:09.329Z,54.82
2018-09-21T20:20:40.136Z,54.87
2018-09-21T20:23:10.732Z,56.81
2018-09-21T20:25:41.043Z,55.92
2018-09-21T20:28:11.627Z,57.47
2018-09-21T20:31:50.418Z,58.66
2018-09-21T20:34:20.928Z,58.39
2018-09-21T20:36:52.048Z,56.78
2018-09-21T20:39:22.659Z,55.50
2018-09-21T20:41:53.075Z,56.73
2018-09-21T20:44:23.713Z,59.75
2018-09-21T20:46:54.317Z,61.23
2018-09-21T20:49:25.158Z,62.64
2018-09-21T20:51:55.982Z,63.84
2018-09-21T20:54:27.493Z,65.17
2018-09-21T20:56:59.100Z,65.06
2018-09-21T20:59:29.853Z,64.47
2018-09-21T21:02:00.592Z,63.85
2018-09-21T21:04:30.899Z,62.64
2018-09-21T21:07:01.451Z,62.11
2018-09-21T21:09:31.749Z,61.06
2018-09-21T21:12:02.805Z,62.54
2018-09-21T21:14:33.723Z,61.01
2018-09-21T21:17:04.261Z,60.01
2018-09-21T21:19:34.984Z,59.22
2018-09-21T21:22:20.136Z,59.13
2018-09-21T21:24:51.054Z,60.12
2018-09-21T21:27:21.784Z,59.64
2018-09-21T21:29:52.317Z,59.12
2018-09-21T21:32:22.702Z,57.89
2018-09-21T21:34:53.405Z,59.79
2018-09-21T21:37:23.971Z,62.01
2018-09-21T21:39:54.583Z,62.85
2018-09-21T21:42:25.363Z,62.44
2018-09-21T21:44:55.941Z,63.78
2018-09-21T21:47:26.579Z,62.48
2018-09-21T21:49:56.903Z,65.57
2018-09-21T21:52:27.502Z,64.78
2018-09-21T21:54:58.618Z,61.55
2018-09-21T21:57:29.168Z,60.07
2018-09-21T21:59:59.628Z,60.02
2018-09-21T22:02:33.985Z,60.93
2018-09-21T22:05:07.004Z,66.61
2018-09-21T22:07:38.769Z,70.70
2018-09-21T22:10:09.692Z,73.64
2018-09-21T22:14:49.399Z,74.57
2018-09-21T22:17:19.934Z,77.02
2018-09-21T22:19:50.451Z,78.23
2018-09-21T22:22:20.980Z,79.17
2018-09-21T22:24:51.537Z,79.78
2018-09-21T22:27:22.165Z,80.21
2018-09-21T22:29:54.185Z,81.31
2018-09-21T22:32:24.733Z,81.58
2018-09-21T22:34:55.376Z,81.54
2018-09-21T22:37:26.201Z,82.03
2018-09-21T22:39:56.911Z,82.57
2018-09-21T22:42:27.462Z,82.26
2018-09-21T22:44:58.069Z,81.24
2018-09-21T22:47:28.946Z,80.57
2018-09-21T22:49:59.233Z,79.82
2018-09-21T22:52:29.780Z,79.87
2018-09-21T22:55:00.021Z,79.13
2018-09-21T22:57:31.315Z,79.96
2018-09-21T23:00:01.821Z,78.76
2018-09-21T23:02:34.675Z,78.94
2018-09-21T23:05:07.325Z,78.88
2018-09-21T23:07:37.928Z,78.61
2018-09-21T23:10:10.947Z,77.69
2018-09-21T23:12:41.149Z,78.20
2018-09-21T23:15:12.645Z,78.53
2018-09-21T23:17:42.888Z,77.76
2018-09-21T23:20:13.455Z,78.19
2018-09-21T23:22:43.766Z,78.10
2018-09-21T23:25:14.364Z,77.60
2018-09-21T23:27:45.011Z,76.96
2018-09-21T23:30:15.535Z,76.86
2018-09-21T23:32:46.371Z,76.13
2018-09-21T23:35:16.899Z,75.39
2018-09-21T23:37:47.674Z,75.92
2018-09-21T23:40:17.947Z,76.37
2018-09-21T23:42:48.709Z,77.41
2018-09-21T23:45:19.233Z,77.97
2018-09-21T23:47:49.625Z,78.96
2018-09-21T23:50:20.260Z,78.74
2018-09-21T23:52:51.211Z,78.23
2018-09-21T23:55:21.484Z,79.13
2018-09-21T23:57:51.987Z,78.10
